Time;durP1;ratioP1;P1;durP2;ratioP2;P2;SDS_P1;SDS_P2;PMS_P1;PMS_P2;Temp;Humidity;BMP_temperature;BMP_pressure;BME280_temperature;BME280_humidity;BME280_pressure;Samples;Min_cycle;Max_cycle;Signal;HPM_P1;HPM_P2
2023/01/16 00:01:29;;;;;;;58.93;23.87;;;9.60;92.20;;;;;;5071993;28;20281;-77
2023/01/16 00:03:57;;;;;;;50.57;23.70;;;9.60;92.20;;;;;;5058978;28;20194;-76
2023/01/16 00:06:27;;;;;;;52.93;23.90;;;9.60;92.50;;;;;;5064451;28;20196;-77
2023/01/16 00:08:55;;;;;;;50.50;22.87;;;9.50;92.10;;;;;;5062900;28;20721;-76
2023/01/16 00:11:23;;;;;;;52.77;22.93;;;9.50;92.20;;;;;;5064603;28;20678;-77
2023/01/16 00:13:52;;;;;;;50.63;21.97;;;9.60;92.20;;;;;;5068044;28;20240;-75
2023/01/16 00:16:21;;;;;;;51.87;24.33;;;9.60;92.20;;;;;;5062685;28;20190;-76
2023/01/16 00:18:49;;;;;;;49.87;21.60;;;9.60;92.20;;;;;;5061729;28;20202;-77
2023/01/16 00:21:19;;;;;;;47.33;22.10;;;9.60;92.20;;;;;;5060228;28;20227;-76
2023/01/16 00:23:49;;;;;;;49.33;22.60;;;9.60;92.20;;;;;;5056608;28;20195;-76
2023/01/16 00:26:17;;;;;;;46.73;20.87;;;9.60;92.10;;;;;;5065960;28;20254;-78
2023/01/16 00:28:45;;;;;;;47.73;21.87;;;9.60;92.10;;;;;;5064862;28;20203;-77
2023/01/16 00:31:14;;;;;;;46.63;20.77;;;9.60;92.10;;;;;;5062304;28;20194;-77
2023/01/16 00:33:43;;;;;;;46.07;21.33;;;9.60;92.10;;;;;;5060425;28;20198;-76
2023/01/16 00:36:12;;;;;;;48.13;22.13;;;9.60;92.10;;;;;;5068097;28;20764;-76
2023/01/16 00:38:40;;;;;;;47.80;20.83;;;9.60;92.10;;;;;;5057193;28;20198;-78
2023/01/16 00:41:10;;;;;;;48.67;21.20;;;9.60;92.20;;;;;;5060940;28;20239;-77
2023/01/16 00:43:38;;;;;;;48.53;21.57;;;9.60;92.20;;;;;;5067556;28;20531;-76
2023/01/16 00:46:07;;;;;;;42.97;20.77;;;9.60;92.20;;;;;;5062130;28;20221;-75
2023/01/16 00:48:35;;;;;;;44.07;20.47;;;9.60;92.10;;;;;;5059609;28;20629;-76
2023/01/16 00:51:04;;;;;;;43.53;20.13;;;9.60;92.10;;;;;;5062029;28;20244;-76
2023/01/16 00:53:32;;;;;;;45.97;20.60;;;9.60;92.10;;;;;;5058205;28;20233;-76
2023/01/16 00:56:00;;;;;;;39.43;19.20;;;9.60;92.10;;;;;;5069924;28;20218;-77
2023/01/16 00:58:31;;;;;;;38.90;18.90;;;9.60;92.00;;;;;;5065213;28;20259;-76
2023/01/16 01:01:00;;;;;;;39.07;18.90;;;9.60;92.00;;;;;;5062320;28;20194;-77
2023/01/16 01:03:28;;;;;;;46.00;21.87;;;9.60;91.90;;;;;;5073956;28;20227;-76
2023/01/16 01:05:57;;;;;;;46.07;21.23;;;9.60;91.90;;;;;;5073547;28;20643;-76
2023/01/16 01:08:25;;;;;;;40.50;19.03;;;9.60;91.90;;;;;;5066624;28;20595;-76
2023/01/16 01:10:53;;;;;;;43.20;19.10;;;9.60;91.90;;;;;;5069194;28;20728;-77
2023/01/16 01:13:22;;;;;;;41.43;18.03;;;9.50;91.80;;;;;;5063536;28;20251;-76
2023/01/16 01:15:51;;;;;;;45.73;19.60;;;9.50;91.70;;;;;;5065029;28;20280;-76
2023/01/16 01:18:20;;;;;;;45.97;20.83;;;9.50;91.70;;;;;;5065560;28;20901;-76
2023/01/16 01:20:48;;;;;;;46.07;20.73;;;9.40;91.60;;;;;;5061949;28;20203;-76
2023/01/16 01:23:16;;;;;;;44.63;18.60;;;9.40;91.60;;;;;;5061118;28;20241;-76
2023/01/16 01:25:45;;;;;;;42.80;19.47;;;9.40;91.60;;;;;;5067536;28;20183;-77
2023/01/16 01:28:13;;;;;;;41.87;18.33;;;9.30;91.50;;;;;;5059840;28;20648;-77
2023/01/16 01:30:42;;;;;;;48.40;20.43;;;9.30;91.50;;;;;;5070017;28;20222;-77
2023/01/16 01:33:12;;;;;;;46.93;20.30;;;9.20;91.40;;;;;;5072791;28;20290;-75
2023/01/16 01:35:40;;;;;;;44.60;18.63;;;9.20;91.40;;;;;;5064572;28;20245;-77
2023/01/16 01:38:08;;;;;;;39.20;18.77;;;9.10;91.40;;;;;;5075061;28;20244;-77
2023/01/16 01:40:37;;;;;;;38.73;18.07;;;9.10;91.40;;;;;;5062687;28;20278;-75
2023/01/16 01:43:12;;;;;;;37.37;18.37;;;9.10;91.40;;;;;;5064873;28;20608;-76
2023/01/16 01:45:42;;;;;;;43.17;18.50;;;9.00;91.40;;;;;;5067426;28;20568;-76
2023/01/16 01:48:24;;;;;;;49.73;20.03;;;9.00;91.40;;;;;;5064960;28;20206;-76
2023/01/16 01:50:58;;;;;;;43.23;18.90;;;8.90;91.40;;;;;;5073225;28;20198;-76
2023/01/16 01:53:29;;;;;;;38.27;17.90;;;8.90;91.40;;;;;;5055516;28;20750;-77
2023/01/16 01:56:01;;;;;;;41.23;17.80;;;8.90;91.30;;;;;;5067448;28;21491;-76
2023/01/16 01:58:30;;;;;;;39.17;17.47;;;8.90;91.30;;;;;;5065167;28;20194;-77
2023/01/16 02:01:00;;;;;;;43.20;18.77;;;8.80;91.30;;;;;;5067275;28;20248;-76
2023/01/16 02:03:35;;;;;;;38.67;17.93;;;8.80;91.30;;;;;;5062648;28;20273;-75
2023/01/16 02:06:09;;;;;;;41.53;18.73;;;8.80;91.30;;;;;;5073614;28;20259;-76
2023/01/16 02:08:38;;;;;;;43.07;20.17;;;8.70;91.20;;;;;;5067707;28;20222;-77
2023/01/16 02:11:25;;;;;;;42.03;18.77;;;8.70;91.20;;;;;;5067074;28;20233;-76
2023/01/16 02:13:56;;;;;;;41.67;18.13;;;8.70;91.20;;;;;;5064393;28;20335;-77
2023/01/16 02:19:19;;;;;;;38.90;17.97;;;8.60;91.20;;;;;;5066546;28;20200;-76
2023/01/16 02:22:29;;;;;;;37.70;17.87;;;8.50;91.20;;;;;;5054699;28;20198;-78
2023/01/16 02:25:53;;;;;;;40.13;18.47;;;8.50;91.20;;;;;;5011434;28;20221;-76
2023/01/16 02:28:52;;;;;;;40.83;17.83;;;8.40;91.10;;;;;;5024947;28;20201;-76
2023/01/16 02:31:33;;;;;;;35.80;17.37;;;8.40;91.10;;;;;;5068020;28;20242;-76
2023/01/16 02:34:26;;;;;;;38.87;17.00;;;8.30;91.10;;;;;;5068709;28;20567;-77
2023/01/16 02:37:05;;;;;;;36.67;18.67;;;8.30;91.10;;;;;;5069055;28;20214;-75
2023/01/16 02:39:40;;;;;;;39.13;18.70;;;8.30;91.10;;;;;;5056107;28;20194;-76
2023/01/16 02:42:15;;;;;;;38.60;17.60;;;8.20;91.10;;;;;;5068678;28;20247;-76
2023/01/16 02:44:52;;;;;;;40.10;18.67;;;8.20;91.10;;;;;;5070301;28;20606;-76
2023/01/16 02:47:27;;;;;;;39.47;19.60;;;8.20;91.10;;;;;;5065430;28;20222;-76
2023/01/16 02:50:03;;;;;;;35.63;17.00;;;8.20;91.20;;;;;;5066874;28;20206;-76
2023/01/16 02:52:38;;;;;;;44.47;18.07;;;8.10;91.10;;;;;;5065261;28;20241;-77
2023/01/16 02:55:13;;;;;;;40.13;18.30;;;8.10;91.10;;;;;;5059330;28;20243;-76
2023/01/16 02:57:46;;;;;;;40.20;17.27;;;8.10;91.10;;;;;;5063113;28;20243;-76
2023/01/16 03:00:19;;;;;;;42.77;19.67;;;8.00;91.10;;;;;;5068597;28;20214;-76
2023/01/16 03:02:48;;;;;;;36.57;17.90;;;8.00;91.10;;;;;;5057900;28;20914;-78
2023/01/16 03:05:17;;;;;;;37.17;18.00;;;8.00;91.10;;;;;;5068863;28;20205;-76
2023/01/16 03:08:19;;;;;;;34.87;16.50;;;7.90;91.00;;;;;;5067386;28;20197;-76
2023/01/16 03:11:24;;;;;;;43.10;18.73;;;7.90;91.00;;;;;;5005986;28;20226;-76
2023/01/16 03:14:26;;;;;;;42.77;19.00;;;7.90;91.00;;;;;;5063332;28;20603;-76
2023/01/16 03:17:19;;;;;;;42.20;18.43;;;7.80;91.00;;;;;;5067286;28;20206;-77
2023/01/16 03:20:09;;;;;;;41.83;18.73;;;7.80;91.00;;;;;;5064248;28;20195;-76
2023/01/16 03:22:42;;;;;;;42.20;18.00;;;7.80;91.00;;;;;;5059605;28;20655;-78
2023/01/16 03:25:25;;;;;;;40.40;16.93;;;7.70;91.00;;;;;;5066486;28;20258;-76
2023/01/16 03:28:04;;;;;;;41.40;18.53;;;7.70;91.00;;;;;;5067464;28;20233;-76
2023/01/16 03:30:38;;;;;;;38.07;17.50;;;7.70;91.00;;;;;;5071771;28;20197;-76
2023/01/16 03:33:11;;;;;;;48.77;19.80;;;7.60;91.00;;;;;;5069189;28;20363;-77
2023/01/16 03:35:47;;;;;;;48.30;22.10;;;7.60;91.30;;;;;;5064275;28;20257;-77
2023/01/16 03:38:19;;;;;;;51.80;21.67;;;7.60;91.60;;;;;;5067760;28;20233;-75
2023/01/16 03:40:48;;;;;;;57.77;25.57;;;7.50;91.60;;;;;;5060623;28;20243;-76
2023/01/16 03:43:22;;;;;;;67.77;29.10;;;7.50;91.80;;;;;;5063002;28;20286;-75
2023/01/16 03:45:53;;;;;;;66.00;29.73;;;7.50;92.00;;;;;;5061511;28;20614;-76
2023/01/16 03:48:28;;;;;;;65.00;29.40;;;7.50;92.10;;;;;;5057916;28;20286;-77
2023/01/16 03:51:03;;;;;;;67.80;31.43;;;7.50;92.20;;;;;;5068885;28;20189;-76
2023/01/16 03:53:40;;;;;;;65.07;30.30;;;7.50;92.30;;;;;;5061291;28;20282;-75
2023/01/16 03:56:13;;;;;;;61.10;30.10;;;7.50;92.50;;;;;;5067400;28;20244;-75
2023/01/16 03:58:52;;;;;;;68.53;30.73;;;7.50;92.60;;;;;;5060372;28;20195;-75
2023/01/16 04:01:27;;;;;;;65.53;28.63;;;7.50;92.60;;;;;;5068637;28;20202;-77
2023/01/16 04:04:03;;;;;;;60.40;28.27;;;7.50;92.60;;;;;;5061089;28;20207;-75
2023/01/16 04:06:38;;;;;;;60.27;28.97;;;7.50;92.60;;;;;;5065144;28;20204;-77
2023/01/16 04:09:11;;;;;;;60.67;29.43;;;7.50;92.60;;;;;;5063839;28;20267;-76
2023/01/16 04:11:41;;;;;;;67.57;29.90;;;7.50;92.60;;;;;;5067349;28;20190;-75
2023/01/16 04:14:12;;;;;;;67.40;31.57;;;7.50;92.60;;;;;;5065226;28;20198;-76
2023/01/16 04:16:42;;;;;;;66.80;32.00;;;7.50;92.70;;;;;;5063837;28;20603;-76
2023/01/16 04:19:14;;;;;;;59.80;28.80;;;7.50;92.70;;;;;;5057884;28;20206;-76
2023/01/16 04:21:46;;;;;;;60.77;28.90;;;7.50;92.80;;;;;;5066379;28;20190;-76
2023/01/16 04:24:15;;;;;;;59.93;29.00;;;7.50;92.80;;;;;;5056512;28;20214;-77
2023/01/16 04:26:44;;;;;;;65.07;28.63;;;7.50;92.80;;;;;;5061253;28;20198;-75
2023/01/16 04:29:12;;;;;;;59.47;27.43;;;7.50;92.90;;;;;;5071816;28;20199;-77
2023/01/16 04:31:40;;;;;;;56.37;26.73;;;7.50;93.00;;;;;;5070073;28;20196;-75
2023/01/16 04:34:08;;;;;;;59.40;25.50;;;7.50;93.00;;;;;;5068950;28;22218;-76
2023/01/16 04:36:37;;;;;;;59.03;26.63;;;7.50;93.10;;;;;;5067249;28;20237;-76
2023/01/16 04:39:06;;;;;;;55.50;25.97;;;7.50;93.10;;;;;;5065170;28;20197;-76
2023/01/16 04:41:37;;;;;;;53.10;25.83;;;7.50;93.10;;;;;;5071482;28;20291;-76
2023/01/16 04:44:08;;;;;;;59.63;29.38;;;7.50;93.20;;;;;;5066916;28;20523;-76
2023/01/16 04:46:38;;;;;;;56.90;25.83;;;7.50;93.60;;;;;;5075281;28;20190;-76
2023/01/16 04:49:07;;;;;;;56.97;25.33;;;7.50;93.50;;;;;;5062990;28;20279;-76
2023/01/16 04:51:35;;;;;;;49.13;24.17;;;7.50;93.50;;;;;;5056474;28;20195;-76
2023/01/16 04:54:05;;;;;;;53.90;24.73;;;7.50;93.30;;;;;;5066492;28;20281;-76
2023/01/16 04:56:35;;;;;;;45.73;22.93;;;7.50;93.30;;;;;;5066180;28;20229;-76
2023/01/16 04:59:04;;;;;;;50.90;22.87;;;7.50;93.30;;;;;;5061187;28;20195;-76
2023/01/16 05:01:34;;;;;;;47.90;22.37;;;7.50;93.20;;;;;;5072748;28;20198;-76
2023/01/16 05:04:04;;;;;;;51.83;25.67;;;7.50;93.10;;;;;;5062019;28;20436;-75
2023/01/16 05:06:33;;;;;;;43.90;21.80;;;7.50;93.10;;;;;;5067079;28;20217;-75
2023/01/16 05:09:01;;;;;;;43.87;20.90;;;7.50;93.10;;;;;;5070111;28;20275;-75
2023/01/16 05:11:30;;;;;;;46.07;20.47;;;7.50;93.00;;;;;;5069203;28;20251;-76
2023/01/16 05:13:59;;;;;;;43.77;20.70;;;7.50;93.00;;;;;;5065606;28;20650;-76
2023/01/16 05:16:28;;;;;;;47.10;22.17;;;7.50;93.00;;;;;;5063815;28;20195;-76
2023/01/16 05:18:57;;;;;;;42.93;21.27;;;7.50;93.00;;;;;;5066736;28;20217;-77
2023/01/16 05:21:25;;;;;;;39.07;19.27;;;7.50;92.90;;;;;;5061053;28;20671;-76
2023/01/16 05:23:53;;;;;;;41.67;20.47;;;7.50;92.90;;;;;;5067615;28;20575;-75
2023/01/16 05:26:22;;;;;;;46.10;18.80;;;7.50;92.90;;;;;;5073115;28;20198;-76
2023/01/16 05:28:50;;;;;;;40.87;18.53;;;7.50;92.90;;;;;;5074501;28;20197;-76
2023/01/16 05:31:20;;;;;;;38.57;18.20;;;7.50;92.80;;;;;;5071900;28;20205;-76
2023/01/16 05:33:49;;;;;;;39.07;18.27;;;7.40;92.80;;;;;;5075532;28;20197;-77
2023/01/16 05:36:17;;;;;;;39.63;18.57;;;7.40;92.80;;;;;;5063728;28;20202;-76
2023/01/16 05:38:46;;;;;;;35.90;16.53;;;7.40;92.80;;;;;;5063311;28;20216;-77
2023/01/16 05:41:14;;;;;;;38.40;17.97;;;7.40;92.80;;;;;;5067283;28;20601;-77
2023/01/16 05:43:43;;;;;;;32.33;16.10;;;7.40;92.90;;;;;;5069488;28;20275;-76
2023/01/16 05:46:11;;;;;;;37.73;18.03;;;7.40;92.90;;;;;;5068556;28;20206;-76
2023/01/16 05:48:41;;;;;;;34.97;16.43;;;7.40;92.90;;;;;;5059722;28;20201;-76
2023/01/16 05:51:09;;;;;;;30.20;15.23;;;7.40;92.90;;;;;;5065785;28;20206;-77
2023/01/16 05:53:37;;;;;;;33.00;15.63;;;7.40;92.90;;;;;;5068035;28;20622;-76
2023/01/16 05:56:10;;;;;;;31.37;15.17;;;7.40;93.00;;;;;;5075097;28;20195;-76
2023/01/16 05:58:39;;;;;;;27.67;14.07;;;7.40;93.00;;;;;;5069651;28;20230;-75
2023/01/16 06:01:07;;;;;;;27.97;13.33;;;7.40;93.00;;;;;;5063063;28;20205;-77
2023/01/16 06:03:35;;;;;;;29.93;14.77;;;7.40;93.10;;;;;;5068926;28;20282;-76
2023/01/16 06:06:05;;;;;;;27.03;13.80;;;7.40;93.10;;;;;;5072516;28;20198;-76
2023/01/16 06:08:34;;;;;;;28.57;12.90;;;7.40;93.10;;;;;;5065340;28;20722;-76
2023/01/16 06:11:02;;;;;;;24.87;13.03;;;7.40;93.10;;;;;;5064449;28;20259;-76
2023/01/16 06:13:30;;;;;;;28.80;12.87;;;7.40;93.10;;;;;;5063145;28;20202;-75
2023/01/16 06:15:58;;;;;;;23.87;11.63;;;7.40;93.10;;;;;;5060372;28;20230;-77
2023/01/16 06:18:27;;;;;;;22.03;11.27;;;7.40;93.10;;;;;;5058298;28;20590;-77
2023/01/16 06:20:55;;;;;;;24.50;11.47;;;7.50;93.20;;;;;;5061499;28;20262;-77
2023/01/16 06:23:25;;;;;;;24.87;12.20;;;7.50;93.20;;;;;;5058250;28;21652;-76
2023/01/16 06:25:53;;;;;;;31.43;12.80;;;7.50;93.20;;;;;;5068207;28;20214;-76
2023/01/16 06:28:21;;;;;;;23.63;11.63;;;7.50;93.20;;;;;;5056888;28;20712;-77
2023/01/16 06:30:52;;;;;;;24.43;10.30;;;7.50;93.20;;;;;;5076045;28;20288;-75
2023/01/16 06:33:21;;;;;;;22.97;10.80;;;7.60;93.20;;;;;;5063629;28;20245;-76
2023/01/16 06:35:49;;;;;;;25.23;11.73;;;7.60;93.20;;;;;;5065621;28;20237;-77
2023/01/16 06:38:18;;;;;;;26.17;11.90;;;7.60;93.20;;;;;;5054226;28;20219;-75
2023/01/16 06:40:47;;;;;;;23.37;11.77;;;7.70;93.30;;;;;;5069225;28;20202;-76
2023/01/16 06:43:16;;;;;;;24.10;12.68;;;7.70;93.30;;;;;;5063081;28;20441;-76
2023/01/16 06:45:45;;;;;;;21.13;11.40;;;7.70;93.50;;;;;;5064626;28;20257;-76
2023/01/16 06:48:13;;;;;;;25.63;11.83;;;7.70;93.50;;;;;;5060718;28;20197;-77
2023/01/16 06:50:42;;;;;;;24.80;11.83;;;7.80;93.50;;;;;;5064023;28;20701;-76
2023/01/16 06:53:10;;;;;;;25.52;13.05;;;7.80;93.50;;;;;;5060916;28;20437;-76
2023/01/16 06:55:39;;;;;;;22.27;11.33;;;7.80;93.60;;;;;;5062205;28;20197;-77
2023/01/16 06:58:09;;;;;;;21.07;11.27;;;7.90;93.60;;;;;;5065818;28;20218;-76
2023/01/16 07:00:37;;;;;;;23.97;11.20;;;7.90;93.60;;;;;;5061280;28;20229;-76
2023/01/16 07:03:06;;;;;;;19.07;9.97;;;7.90;93.60;;;;;;5064034;28;20682;-77
2023/01/16 07:05:34;;;;;;;21.73;10.77;;;8.00;93.60;;;;;;5070166;28;20206;-76
2023/01/16 07:08:03;;;;;;;23.00;10.70;;;8.00;93.90;;;;;;5064119;28;20194;-75
2023/01/16 07:10:32;;;;;;;24.50;11.40;;;8.10;93.60;;;;;;5062503;28;20194;-76
2023/01/16 07:13:00;;;;;;;20.87;9.87;;;8.10;93.60;;;;;;5058577;28;20229;-75
2023/01/16 07:24:07;;;;;;;22.33;10.13;;;8.30;93.60;;;;;;4978024;28;20209;-76
2023/01/16 07:26:38;;;;;;;26.37;11.33;;;8.40;93.70;;;;;;4984083;28;20203;-76
2023/01/16 07:29:07;;;;;;;25.80;10.93;;;8.50;93.70;;;;;;5027285;28;20713;-78
2023/01/16 07:31:38;;;;;;;22.13;10.67;;;8.50;93.70;;;;;;5068110;28;20617;-76
2023/01/16 07:34:06;;;;;;;18.37;9.67;;;8.60;93.80;;;;;;5066590;28;20277;-76
2023/01/16 07:36:35;;;;;;;19.87;9.23;;;8.70;93.80;;;;;;5051385;28;20195;-76
2023/01/16 07:39:03;;;;;;;19.73;9.43;;;8.70;93.80;;;;;;5056700;28;20229;-78
2023/01/16 07:41:31;;;;;;;17.83;8.90;;;8.80;93.90;;;;;;5064809;28;20194;-76
2023/01/16 07:43:59;;;;;;;16.63;9.83;;;8.80;93.90;;;;;;5069280;28;20252;-76
2023/01/16 07:46:28;;;;;;;19.73;9.60;;;8.90;93.90;;;;;;5073239;28;20206;-77
2023/01/16 07:48:57;;;;;;;24.90;12.35;;;9.00;94.00;;;;;;5050423;28;20466;-76
2023/01/16 07:51:26;;;;;;;20.60;11.10;;;9.10;94.20;;;;;;5058167;28;20222;-78
2023/01/16 07:53:54;;;;;;;17.97;9.07;;;9.20;94.20;;;;;;5058388;28;20223;-77
2023/01/16 07:56:22;;;;;;;20.20;10.90;;;9.20;94.00;;;;;;5062589;28;20261;-77
2023/01/16 07:58:54;;;;;;;25.17;10.87;;;9.30;93.90;;;;;;5060403;28;20626;-74
2023/01/16 08:01:22;;;;;;;24.13;12.70;;;9.40;93.80;;;;;;5062474;28;21470;-76
2023/01/16 08:03:50;;;;;;;23.80;12.23;;;9.50;93.80;;;;;;5071207;28;20203;-76
2023/01/16 08:06:20;;;;;;;19.30;10.43;;;9.60;93.70;;;;;;5072787;28;20298;-76
2023/01/16 08:08:48;;;;;;;19.13;9.67;;;9.70;93.60;;;;;;5060843;28;20206;-78
2023/01/16 08:14:03;;;;;;;14.87;8.17;;;9.80;93.20;;;;;;5060948;28;20387;-77
2023/01/16 08:16:31;;;;;;;16.50;9.13;;;9.90;93.00;;;;;;5065219;28;20202;-77
2023/01/16 08:19:00;;;;;;;16.67;8.87;;;9.90;92.80;;;;;;5060874;28;20218;-76
2023/01/16 08:21:30;;;;;;;17.60;10.40;;;9.90;92.70;;;;;;5072124;28;20246;-76
2023/01/16 08:23:58;;;;;;;18.43;9.73;;;10.00;92.70;;;;;;5070070;28;20229;-76
2023/01/16 08:26:27;;;;;;;18.13;10.23;;;10.00;92.50;;;;;;5062757;28;20240;-76
2023/01/16 08:28:55;;;;;;;19.27;10.70;;;10.10;92.50;;;;;;5059372;28;20675;-76
2023/01/16 08:31:23;;;;;;;24.33;10.90;;;10.20;92.50;;;;;;5061838;28;20195;-77
2023/01/16 08:33:52;;;;;;;20.53;10.47;;;10.20;92.50;;;;;;5067691;28;20239;-77
2023/01/16 08:36:21;;;;;;;17.30;10.33;;;10.30;92.30;;;;;;5067146;28;20198;-76
2023/01/16 08:38:51;;;;;;;24.00;11.87;;;10.40;92.70;;;;;;5059155;28;20242;-76
2023/01/16 08:52:30;;;;;;;19.27;10.23;;;10.70;91.90;;;;;;4997971;28;20247;-75
2023/01/16 08:55:00;;;;;;;17.90;9.47;;;10.80;91.90;;;;;;5004201;28;20255;-77
2023/01/16 08:57:29;;;;;;;18.77;9.70;;;10.90;91.90;;;;;;5002577;28;20268;-75
2023/01/16 08:59:58;;;;;;;17.50;7.67;;;10.90;91.60;;;;;;4999027;28;20211;-76
2023/01/16 09:02:27;;;;;;;12.67;7.50;;;11.00;91.50;;;;;;5005012;28;20227;-77
2023/01/16 09:04:56;;;;;;;17.03;8.53;;;11.10;91.50;;;;;;4999460;28;20193;-76
2023/01/16 09:07:24;;;;;;;15.17;8.00;;;11.10;91.00;;;;;;5008617;28;20205;-77
2023/01/16 09:09:53;;;;;;;17.30;9.50;;;11.20;91.20;;;;;;4995183;28;20445;-76
2023/01/16 09:15:09;;;;;;;13.63;6.67;;;11.30;91.20;;;;;;5015625;28;20251;-76
2023/01/16 09:17:37;;;;;;;12.53;6.57;;;11.40;91.00;;;;;;5015698;28;20197;-76
2023/01/16 09:20:06;;;;;;;13.03;7.03;;;11.50;91.00;;;;;;5011171;28;20809;-76
2023/01/16 09:22:44;;;;;;;11.57;6.27;;;11.50;90.90;;;;;;5004249;28;20309;-76
2023/01/16 09:25:12;;;;;;;12.60;6.40;;;11.60;90.70;;;;;;5006463;28;20200;-76
2023/01/16 09:27:42;;;;;;;15.63;6.73;;;11.60;90.70;;;;;;5006739;28;20231;-76
2023/01/16 09:30:11;;;;;;;12.70;7.23;;;11.70;90.60;;;;;;5007413;28;20239;-78
2023/01/16 09:32:39;;;;;;;13.43;6.53;;;11.70;90.50;;;;;;4999354;28;20210;-78
2023/01/16 09:35:08;;;;;;;14.27;8.20;;;11.80;90.20;;;;;;5008117;28;20556;-77
2023/01/16 09:37:36;;;;;;;13.80;6.83;;;11.90;90.10;;;;;;5011094;28;20713;-77
2023/01/16 09:40:06;;;;;;;17.23;9.17;;;11.90;90.10;;;;;;4994589;28;20897;-77
2023/01/16 09:45:36;;;;;;;15.50;8.67;;;12.10;89.80;;;;;;5007871;28;20720;-77
2023/01/16 09:48:11;;;;;;;17.50;8.90;;;12.10;89.40;;;;;;5004124;28;20204;-77
2023/01/16 09:50:44;;;;;;;17.23;8.53;;;12.10;88.60;;;;;;5009844;28;20266;-78
2023/01/16 09:59:01;;;;;;;14.87;7.83;;;12.20;86.80;;;;;;5003042;28;21521;-77
2023/01/16 10:01:35;;;;;;;18.80;8.07;;;12.30;86.60;;;;;;5008683;28;20246;-76
2023/01/16 10:04:16;;;;;;;16.13;7.40;;;12.30;86.80;;;;;;5013041;28;20667;-76
2023/01/16 10:06:55;;;;;;;13.90;8.13;;;12.40;86.30;;;;;;5015410;28;20188;-76
2023/01/16 10:09:33;;;;;;;13.40;7.77;;;12.40;86.30;;;;;;4996536;28;20207;-76
2023/01/16 10:12:05;;;;;;;14.90;7.13;;;12.40;86.30;;;;;;4997200;28;20201;-77
2023/01/16 10:14:53;;;;;;;11.63;6.67;;;12.40;86.30;;;;;;5002866;28;20196;-76
2023/01/16 10:17:33;;;;;;;11.70;6.93;;;12.50;86.10;;;;;;5006809;28;20535;-77
2023/01/16 10:20:27;;;;;;;11.13;6.20;;;12.60;85.70;;;;;;5010415;28;20266;-76
2023/01/16 10:23:10;;;;;;;15.30;8.83;;;12.60;85.50;;;;;;5013668;28;20195;-77
2023/01/16 10:25:46;;;;;;;10.53;6.53;;;12.70;85.50;;;;;;5008558;28;20205;-78
2023/01/16 10:28:27;;;;;;;10.70;5.97;;;12.70;84.90;;;;;;5004967;28;20273;-77
2023/01/16 10:31:01;;;;;;;11.40;6.50;;;12.80;84.60;;;;;;5009199;28;20698;-77
2023/01/16 10:33:35;;;;;;;15.30;8.63;;;12.90;83.80;;;;;;5011335;28;20291;-78
2023/01/16 10:36:21;;;;;;;17.50;8.57;;;12.90;84.00;;;;;;5015486;28;20212;-78
2023/01/16 10:38:55;;;;;;;13.00;7.23;;;12.90;84.10;;;;;;5011808;28;20249;-78
2023/01/16 10:50:08;;;;;;;11.67;6.60;;;13.00;83.40;;;;;;5018867;28;21660;-78
2023/01/16 10:52:37;;;;;;;12.97;6.70;;;13.00;82.80;;;;;;5015406;28;20233;-77
2023/01/16 10:55:07;;;;;;;14.23;7.60;;;13.00;82.90;;;;;;4998170;28;20193;-78
2023/01/16 10:57:36;;;;;;;15.10;8.30;;;13.00;83.10;;;;;;5011463;28;20201;-77
2023/01/16 11:00:09;;;;;;;13.93;8.17;;;13.00;82.90;;;;;;5020315;28;20246;-77
2023/01/16 11:02:43;;;;;;;13.90;8.17;;;13.00;83.00;;;;;;5009613;28;20232;-79
2023/01/16 11:05:26;;;;;;;13.80;8.43;;;13.10;82.80;;;;;;5015116;28;20223;-78
2023/01/16 11:07:55;;;;;;;14.87;8.60;;;13.10;82.70;;;;;;5000643;28;20245;-77
2023/01/16 11:10:24;;;;;;;15.27;8.53;;;13.10;82.50;;;;;;5008897;28;20200;-78
2023/01/16 11:18:32;;;;;;;11.97;6.77;;;13.20;81.50;;;;;;5000030;28;20211;-78
2023/01/16 11:21:02;;;;;;;13.33;6.80;;;13.20;81.30;;;;;;5002432;28;20252;-78
2023/01/16 11:23:40;;;;;;;14.10;6.53;;;13.20;81.30;;;;;;5010782;28;20712;-77
2023/01/16 11:26:10;;;;;;;11.83;6.77;;;13.20;81.20;;;;;;5026246;28;20204;-77
2023/01/16 11:28:38;;;;;;;11.37;5.97;;;13.20;81.10;;;;;;5004831;28;20194;-77
2023/01/16 11:31:15;;;;;;;12.63;6.60;;;13.20;80.90;;;;;;5020966;28;20216;-77
2023/01/16 11:33:49;;;;;;;19.40;6.73;;;13.20;80.50;;;;;;5016171;28;20198;-76
2023/01/16 11:36:18;;;;;;;12.73;6.13;;;13.30;80.90;;;;;;5017225;28;20205;-77
2023/01/16 11:38:48;;;;;;;11.10;6.33;;;13.30;80.70;;;;;;5014935;28;20250;-77
2023/01/16 11:41:20;;;;;;;12.35;7.18;;;13.30;79.50;;;;;;5010789;28;20445;-78
2023/01/16 11:46:59;;;;;;;11.23;5.80;;;13.40;79.30;;;;;;4971991;28;20241;-78
2023/01/16 11:49:35;;;;;;;12.20;5.80;;;13.40;80.00;;;;;;5011849;28;20200;-78
2023/01/16 11:52:03;;;;;;;12.90;6.13;;;13.40;79.10;;;;;;5018526;28;20648;-77
2023/01/16 11:54:34;;;;;;;11.20;6.30;;;13.40;79.20;;;;;;5012858;28;20200;-78
2023/01/16 11:57:31;;;;;;;9.70;5.60;;;13.40;79.10;;;;;;5007917;28;20221;-79
2023/01/16 12:00:20;;;;;;;12.60;6.60;;;13.50;78.60;;;;;;5006118;28;20673;-78
2023/01/16 12:03:01;;;;;;;14.90;6.60;;;13.50;78.90;;;;;;5006570;28;20201;-78
2023/01/16 12:05:56;;;;;;;14.55;7.47;;;13.50;78.90;;;;;;5006125;28;20440;-78
2023/01/16 12:08:46;;;;;;;15.13;7.10;;;13.50;79.20;;;;;;4993985;28;20204;-78
2023/01/16 12:11:20;;;;;;;12.40;6.53;;;13.50;79.10;;;;;;5004408;28;20569;-78
2023/01/16 12:17:04;;;;;;;12.67;6.57;;;13.60;79.40;;;;;;5005804;28;20196;-78
2023/01/16 12:19:55;;;;;;;11.30;6.03;;;13.60;78.20;;;;;;5007262;28;20251;-78
2023/01/16 12:22:39;;;;;;;10.77;6.03;;;13.50;78.30;;;;;;5004562;28;20719;-78
2023/01/16 12:25:28;;;;;;;11.13;5.90;;;13.60;78.00;;;;;;5003821;28;20192;-78
2023/01/16 12:28:07;;;;;;;14.57;6.03;;;13.50;78.00;;;;;;5009313;28;20192;-78
2023/01/16 12:31:00;;;;;;;15.07;7.10;;;13.60;78.20;;;;;;5006785;28;20215;-79
2023/01/16 12:33:38;;;;;;;10.00;6.17;;;13.60;78.00;;;;;;5006402;28;20228;-78
2023/01/16 12:36:15;;;;;;;13.37;7.20;;;13.60;77.80;;;;;;5009929;28;20630;-78
2023/01/16 12:39:08;;;;;;;13.93;6.87;;;13.60;77.60;;;;;;4992877;28;20234;-79
2023/01/16 12:44:47;;;;;;;12.30;6.23;;;13.50;77.70;;;;;;4997800;28;20189;-78
2023/01/16 12:47:47;;;;;;;13.30;7.40;;;13.50;77.50;;;;;;5009974;28;20196;-78
2023/01/16 12:50:34;;;;;;;17.27;8.57;;;13.40;76.90;;;;;;5012127;28;20200;-80
2023/01/16 12:53:33;;;;;;;15.57;7.30;;;13.40;76.90;;;;;;5006521;28;20228;-79
2023/01/16 12:56:19;;;;;;;13.97;7.47;;;13.30;77.10;;;;;;5013403;28;20623;-80
2023/01/16 12:58:51;;;;;;;15.43;8.93;;;13.30;77.10;;;;;;5009920;28;20200;-79
2023/01/16 13:01:24;;;;;;;19.03;8.60;;;13.20;77.50;;;;;;5007514;28;20291;-76
2023/01/16 13:03:58;;;;;;;14.53;8.00;;;13.20;77.90;;;;;;5014729;28;20200;-80
2023/01/16 13:06:34;;;;;;;13.33;8.07;;;13.20;78.10;;;;;;5000553;28;20225;-80
2023/01/16 13:09:08;;;;;;;18.63;9.13;;;13.20;78.30;;;;;;5001530;28;20196;-80
2023/01/16 13:14:34;;;;;;;22.30;8.87;;;13.10;78.60;;;;;;5008695;28;20201;-80
2023/01/16 13:17:08;;;;;;;16.63;8.10;;;13.10;78.80;;;;;;4994939;28;20200;-79
2023/01/16 13:19:39;;;;;;;17.43;8.90;;;13.10;79.10;;;;;;5018066;28;20658;-79
2023/01/16 13:22:19;;;;;;;16.27;8.60;;;13.10;79.30;;;;;;4997104;28;20252;-78
2023/01/16 13:24:52;;;;;;;15.17;8.47;;;13.20;79.30;;;;;;4999300;28;20588;-78
2023/01/16 13:27:28;;;;;;;16.33;8.07;;;13.10;79.10;;;;;;5005887;28;20266;-78
2023/01/16 13:30:03;;;;;;;14.70;8.27;;;13.10;79.10;;;;;;5015627;28;20216;-78
2023/01/16 13:32:36;;;;;;;17.27;9.27;;;13.10;79.10;;;;;;5013607;28;21358;-78
2023/01/16 13:35:09;;;;;;;15.40;8.57;;;13.10;78.80;;;;;;5011516;28;20272;-79
2023/01/16 13:38:21;;;;;;;16.00;8.87;;;13.10;78.90;;;;;;5017554;28;20274;-76
2023/01/16 13:41:20;;;;;;;18.90;9.03;;;13.10;79.00;;;;;;4969697;28;20220;-79
2023/01/16 13:46:46;;;;;;;16.87;9.33;;;13.00;78.60;;;;;;4998004;28;20196;-77
2023/01/16 13:49:20;;;;;;;18.17;8.70;;;13.00;79.00;;;;;;5004014;28;20658;-77
2023/01/16 13:51:51;;;;;;;17.73;9.80;;;13.00;79.30;;;;;;5008492;28;20240;-78
2023/01/16 13:54:23;;;;;;;17.27;9.00;;;13.00;79.30;;;;;;4993833;28;20224;-78
2023/01/16 13:57:01;;;;;;;17.20;9.63;;;13.00;79.40;;;;;;5005173;28;20219;-77
2023/01/16 13:59:41;;;;;;;21.17;9.83;;;12.90;79.60;;;;;;5011690;28;20586;-79
2023/01/16 14:02:26;;;;;;;20.37;9.40;;;12.90;79.60;;;;;;5009118;28;20204;-78
2023/01/16 14:05:23;;;;;;;17.63;9.13;;;12.80;79.70;;;;;;5028858;28;20253;-77
2023/01/16 14:11:16;;;;;;;22.40;9.57;;;12.80;80.20;;;;;;5009522;28;20260;-78
2023/01/16 14:13:44;;;;;;;21.00;9.77;;;12.80;80.30;;;;;;5013551;28;20250;-78
2023/01/16 14:16:33;;;;;;;20.13;9.30;;;12.70;80.40;;;;;;5019887;28;20250;-77
2023/01/16 14:19:02;;;;;;;17.27;8.60;;;12.70;80.60;;;;;;5008911;28;20194;-78